• Join FlightAware (Why Join?)
  • Login
  • US Flag 
10:45AM EDT


 

Airport Tracker/Info


-or-


 

Live Flight TrackerFlight Track Log ✈ N700QA ✈ 10-Jul-2013 ✈ KENV - KSMO

Flight Track Log - Related Links

Times and Time Zones

All times are in EDT time to prevent confusion due to time zone crossing. See the N700QA flight status page for this flight to view local times or setup timezone preferences in your user account.

Time Position Orientation Groundspeed Altitude Reporting Facility
EDT Latitude Longitude Course Direction KTS MPH feet Rate Location/Type
01:04PM 40.1781 -114.4231 81° East  Level Estimated
01:05PM 40.0878 -114.4878 81° East  Level Estimated
01:06PM 39.9976 -114.5524 90° East  Level Estimated
01:06PM 40.7147 -113.9331 209° Southwest 229 264 6,400  Level Salt Lake Center
01:07PM 39.9073 -114.6169 187° South  Level Estimated
01:07PM 40.7178 -113.8428 87° East 249 287 7,900  Level Salt Lake Center
01:08PM 39.8169 -114.6811 180° South  Level Estimated
01:08PM 40.7272 -113.7428 83° East 261 300 8,900  Level Salt Lake Center
01:09PM 39.7266 -114.7452 180° South  Level Estimated
01:09PM 40.7389 -113.6369 82° East 278 320 10,400  Level Salt Lake Center
01:10PM 39.6362 -114.8091 180° South  Level Estimated
01:10PM 40.6703 -113.5600 140° Southeast 291 335 12,000  Level Salt Lake Center
01:11PM 39.5457 -114.8728 209° Southwest  Level Estimated
01:11PM 40.5908 -113.5439 171° South 290 334 13,800  Level Salt Lake Center
01:12PM 40.5128 -113.5281 171° South 288 331 15,600 1,740 Climbing Salt Lake Center
01:13PM 40.4328 -113.5050 168° South 289 333 17,500 1,500 Climbing Salt Lake Center
01:14PM 40.3264 -113.4789 169° South 305 351 18,800 1,380 Climbing Salt Lake Center
01:15PM 40.2397 -113.4586 170° South 315 362 20,400 1,380 Climbing Salt Lake Center
01:17PM 40.1469 -113.4364 170° South 330 380 21,700 1,200 Climbing Salt Lake Center
01:18PM 40.0536 -113.4117 169° South 341 392 22,900 1,080 Climbing Salt Lake Center
01:19PM 39.9606 -113.3903 170° South 340 391 24,000 960 Climbing Salt Lake Center
01:20PM 39.8658 -113.3661 169° South 345 397 25,000 960 Climbing Salt Lake Center
01:21PM 39.7503 -113.3389 170° South 352 405 26,100 900 Climbing Salt Lake Center
01:22PM 39.6469 -113.3136 169° South 359 413 26,900 900 Climbing Salt Lake Center
01:23PM 39.5464 -113.2900 170° South 364 419 28,000 840 Climbing Salt Lake Center
01:24PM 39.4467 -113.2664 170° South 366 421 28,700 600 Climbing Salt Lake Center
01:25PM 39.3461 -113.2411 169° South 368 423 29,300 660 Climbing Salt Lake Center
01:26PM 39.2444 -113.2178 170° South 371 427 30,100 660 Climbing Salt Lake Center
01:27PM 39.1419 -113.1933 170° South 373 429 30,700 840 Climbing Salt Lake Center
01:28PM 39.0186 -113.1617 169° South 376 433 31,900 840 Climbing Salt Lake Center
01:29PM 38.9175 -113.1397 170° South 371 427 32,500 540 Climbing Salt Lake Center
01:30PM 38.8161 -113.1161 170° South 369 425 33,100 660 Climbing Salt Lake Center
01:31PM 38.7147 -113.0928 170° South 371 427 33,900 420 Climbing Salt Lake Center
01:32PM 38.6128 -113.0686 170° South 371 427 34,000 60 Climbing Salt Lake Center
01:33PM 38.5078 -113.0450 170° South 380 437 34,100  Climbing Salt Lake Center
01:34PM 38.3758 -113.0194 171° South 396 456 34,100  Level Salt Lake Center
01:35PM 38.2797 -113.0808 207° Southwest 384 442 34,100  Level Salt Lake Center
01:36PM 38.1883 -113.1508 211° Southwest 385 443 34,100  Level Salt Lake Center
01:37PM 38.0978 -113.2239 212° Southwest 388 447 34,100 -60 Level Salt Lake Center
01:38PM 38.0097 -113.2969 213° Southwest 382 440 34,000 -60 Descending Salt Lake Center
01:39PM 37.9022 -113.3817 212° Southwest 382 440 34,000  Level Salt Lake Center
01:40PM 37.8125 -113.4531 212° Southwest 383 441 34,100  Climbing Salt Lake Center
01:41PM 37.7217 -113.5269 213° Southwest 387 445 34,100  Level Salt Lake Center
01:42PM 37.6306 -113.5961 211° Southwest 386 444 34,100  Level Salt Lake Center
01:43PM 37.5950 -113.6261 214° Southwest 389 448 34,100  Level Los Angeles Center
01:44PM 37.4839 -113.7117 211° Southwest 391 450 34,100  Level Los Angeles Center
01:45PM 37.3936 -113.7833 212° Southwest 386 444 34,100  Level Los Angeles Center
01:46PM 37.3031 -113.8539 212° Southwest 385 443 34,100 -60 Level Los Angeles Center
01:47PM 37.2094 -113.9272 212° Southwest 382 440 34,000 -60 Descending Los Angeles Center
01:48PM 37.0997 -114.0114 211° Southwest 384 442 34,000  Level Los Angeles Center
01:49PM 37.0114 -114.0842 213° Southwest 380 437 34,000  Level Los Angeles Center
01:50PM 36.9203 -114.1542 212° Southwest 382 440 34,000  Level Los Angeles Center
01:51PM 36.8292 -114.2250 212° Southwest 383 441 34,000  Level Los Angeles Center
01:52PM 36.7375 -114.2942 211° Southwest 384 442 34,000  Level Los Angeles Center
01:53PM 36.6456 -114.3636 211° Southwest 384 442 34,000  Level Los Angeles Center
01:54PM 36.5542 -114.4331 211° Southwest 384 442 34,000  Level Los Angeles Center
01:56PM 36.4264 -114.5300 211° Southwest 384 442 34,000  Level Los Angeles Center
01:57PM 36.3175 -114.6147 212° Southwest 384 442 34,000  Level Los Angeles Center
01:58PM 36.2267 -114.6853 212° Southwest 383 441 34,000  Level Los Angeles Center
01:59PM 36.1347 -114.7539 211° Southwest 383 441 34,000  Level Los Angeles Center
02:00PM 36.0431 -114.8250 212° Southwest 385 443 34,000  Level Los Angeles Center
02:01PM 35.9594 -114.9092 219° Southwest 386 444 34,000  Level Los Angeles Center
02:02PM 35.8708 -115.0289 228° Southwest 388 447 34,000  Level Los Angeles Center
02:03PM 35.7989 -115.1283 228° Southwest 388 447 34,000  Level Los Angeles Center
02:04PM 35.7250 -115.2289 228° Southwest 390 449 34,000  Level Los Angeles Center
02:05PM 35.6519 -115.3294 228° Southwest 392 451 34,000  Level Los Angeles Center
02:06PM 35.5781 -115.4267 227° Southwest 388 447 34,000  Level Los Angeles Center
02:07PM 35.5047 -115.5258 228° Southwest 389 448 34,000 -480 Level Los Angeles Center
02:08PM 35.4214 -115.6386 228° Southwest 393 452 33,100 -900 Descending Los Angeles Center
02:09PM 35.3472 -115.7378 227° Southwest 394 453 32,200 -840 Descending Los Angeles Center
02:10PM 35.2742 -115.8353 227° Southwest 390 449 31,400 -780 Descending Los Angeles Center
02:11PM 35.2147 -115.9119 227° Southwest 389 448 30,600 -840 Descending Los Angeles Center
02:12PM 35.1264 -116.0275 227° Southwest 388 447 29,500 -1,320 Descending Los Angeles Center
02:14PM 35.0369 -116.1456 227° Southwest 393 452 27,600 -2,100 Descending Los Angeles Center
02:15PM 34.9417 -116.2672 226° Southwest 407 468 25,200 -1,860 Descending Los Angeles Center
02:16PM 34.8514 -116.3869 227° Southwest 404 465 23,500 -1,320 Descending Los Angeles Center
02:17PM 34.8139 -116.4969 247° West 378 435 22,300 -720 Descending Los Angeles Center
02:18PM 34.7967 -116.6236 261° West 379 436 22,100 -120 Descending Los Angeles Center
02:19PM 34.7811 -116.7511 262° West 381 438 22,100  Level Los Angeles Center
02:20PM 34.7675 -116.8789 263° West 383 441 22,100 -240 Level Los Angeles Center
02:21PM 34.7503 -117.0331 262° West 382 440 21,700 -660 Descending Los Angeles Center
02:22PM 34.7350 -117.1564 261° West 371 427 20,800 -840 Descending Los Angeles Center
02:23PM 34.7208 -117.2797 262° West 367 422 19,900 -840 Descending Los Angeles Center
02:24PM 34.7042 -117.4247 262° West 362 417 18,900 -900 Descending Los Angeles Center
02:26PM 34.6869 -117.5672 262° West 356 410 17,900 -840 Descending Los Angeles Center
02:27PM 34.6733 -117.6853 262° West 353 406 17,100 -1,380 Descending Los Angeles Center
02:28PM 34.6339 -117.8197 250° West 349 402 14,800 -1,740 Descending Los Angeles Center
02:30PM 34.6013 -118.0050 246° West  Level FlightAware Approximate
02:32PM 34.5167 -118.2167 180° South 280 322 8,100  Level Southern California TRACON
02:33PM 34.4667 -118.2667 220° Southwest 290 334 8,000 -60 Descending Southern California TRACON
02:34PM 34.3833 -118.2667 180° South 284 327 8,000 -360 Level Southern California TRACON
02:35PM 34.3000 -118.2667 180° South 275 316 7,300 -540 Descending Southern California TRACON
02:36PM 34.2333 -118.2667 180° South 258 297 7,000 -900 Descending Southern California TRACON
02:37PM 34.1884 -118.2833 180° South  Level FlightAware Approximate
02:37PM 34.1667 -118.3000 202° Southwest 234 269 5,600  Level Southern California TRACON
02:38PM 34.1333 -118.3333 220° Southwest 213 245 3,900 -1,560 Descending Southern California TRACON
02:39PM 34.0833 -118.3833 220° Southwest 195 224 2,500 -1,380 Descending Southern California TRACON
02:40PM 34.0500 -118.4167 220° Southwest 156 180 1,200 -1,080 Descending Southern California TRACON
02:41PM 34.0167 -118.4500 220° Southwest 131 151 400 -840 Descending Southern California TRACON
02:43PM 34.0158 -118.4513 244° Southwest  Level Estimated
02:50PM 34.0158 -118.4513 244° Southwest  Level Estimated